Time;durP1;ratioP1;P1;durP2;ratioP2;P2;SDS_P1;SDS_P2;PMS_P1;PMS_P2;Temp;Humidity;BMP_temperature;BMP_pressure;BME280_temperature;BME280_humidity;BME280_pressure;Samples;Min_cycle;Max_cycle;Signal;HPM_P1;HPM_P2
2022/04/07 00:01:06;;;;;;;5.53;1.10;;;15.70;85.50;;;;;;4976963;28;20460;-67
2022/04/07 00:03:31;;;;;;;4.10;0.70;;;15.70;85.20;;;;;;4976950;28;20110;-59
2022/04/07 00:05:57;;;;;;;3.05;0.73;;;15.70;85.60;;;;;;4976911;28;20061;-57
2022/04/07 00:08:23;;;;;;;4.13;1.20;;;15.60;85.50;;;;;;4976973;28;20077;-52
2022/04/07 00:10:50;;;;;;;5.95;1.20;;;15.60;85.30;;;;;;4976777;28;20058;-54
2022/04/07 00:13:15;;;;;;;4.72;1.10;;;15.60;85.30;;;;;;4976465;28;20054;-60
2022/04/07 00:15:41;;;;;;;5.30;1.20;;;15.60;85.40;;;;;;4976721;28;20078;-54
2022/04/07 00:18:07;;;;;;;5.32;1.13;;;15.60;85.60;;;;;;4976881;28;20062;-61
2022/04/07 00:20:33;;;;;;;2.35;0.90;;;15.60;85.40;;;;;;4976944;28;20038;-59
2022/04/07 00:22:59;;;;;;;5.57;1.25;;;15.60;85.50;;;;;;4976522;28;20018;-52
2022/04/07 00:25:27;;;;;;;5.28;1.10;;;15.60;85.30;;;;;;4976792;28;20027;-59
2022/04/07 00:27:53;;;;;;;6.28;1.23;;;15.60;85.30;;;;;;4976497;28;20444;-54
2022/04/07 00:30:21;;;;;;;4.15;1.20;;;15.60;85.20;;;;;;4976656;28;20488;-54
2022/04/07 00:32:49;;;;;;;4.50;0.90;;;15.60;85.30;;;;;;4976443;28;20027;-57
2022/04/07 00:35:16;;;;;;;3.80;1.02;;;15.60;85.40;;;;;;4976369;28;20280;-55
2022/04/07 00:37:42;;;;;;;6.07;1.20;;;15.60;85.40;;;;;;4976560;28;20126;-54
2022/04/07 00:40:09;;;;;;;3.75;1.10;;;15.50;85.50;;;;;;4976410;28;20496;-54
2022/04/07 00:42:42;;;;;;;6.45;1.02;;;15.50;85.40;;;;;;4975893;28;20469;-67
2022/04/07 00:45:08;;;;;;;5.57;1.23;;;15.50;85.50;;;;;;4976444;28;20026;-57
2022/04/07 00:47:34;;;;;;;5.22;1.13;;;15.50;85.70;;;;;;4975877;28;20027;-67
2022/04/07 00:49:59;;;;;;;3.85;0.88;;;15.50;85.70;;;;;;4976395;28;20035;-55
2022/04/07 00:52:28;;;;;;;3.90;1.33;;;15.50;85.50;;;;;;4976248;28;20023;-53
2022/04/07 00:54:53;;;;;;;5.80;1.13;;;15.50;85.60;;;;;;4975638;28;20465;-56
2022/04/07 00:57:19;;;;;;;6.32;1.10;;;15.50;85.60;;;;;;4975816;28;20042;-52
2022/04/07 00:59:46;;;;;;;3.97;1.08;;;15.50;85.60;;;;;;4975958;28;20026;-59
2022/04/07 01:02:12;;;;;;;3.83;1.08;;;15.50;85.60;;;;;;4975777;28;20418;-58
2022/04/07 01:04:38;;;;;;;4.25;1.30;;;15.50;85.70;;;;;;4975907;28;20531;-56
2022/04/07 01:07:06;;;;;;;5.05;0.90;;;15.50;85.60;;;;;;4975809;28;20031;-55
2022/04/07 01:09:32;;;;;;;5.65;1.33;;;15.50;85.70;;;;;;4975927;28;20023;-64
2022/04/07 01:11:57;;;;;;;4.30;1.00;;;15.50;85.70;;;;;;4975449;28;20039;-63
2022/04/07 01:14:23;;;;;;;3.63;1.02;;;15.40;85.70;;;;;;4975835;28;20021;-60
2022/04/07 01:16:48;;;;;;;5.78;1.35;;;15.50;85.70;;;;;;4975845;28;20077;-59
2022/04/07 01:19:14;;;;;;;6.32;1.10;;;15.40;85.60;;;;;;4975314;28;20034;-55
2022/04/07 01:21:40;;;;;;;5.07;1.60;;;15.50;85.70;;;;;;4975619;28;20027;-53
2022/04/07 01:24:08;;;;;;;5.50;1.30;;;15.50;85.70;;;;;;4975612;28;20019;-54
2022/04/07 01:26:38;;;;;;;6.68;1.33;;;15.40;85.70;;;;;;4975380;28;20074;-57
2022/04/07 01:29:06;;;;;;;6.05;1.50;;;15.40;85.60;;;;;;4975354;28;20023;-53
2022/04/07 01:31:32;;;;;;;3.78;0.93;;;15.40;85.70;;;;;;4975417;28;20030;-55
2022/04/07 01:34:00;;;;;;;5.47;1.38;;;15.40;85.50;;;;;;4975610;28;20015;-61
2022/04/07 01:36:30;;;;;;;4.20;1.70;;;15.40;85.70;;;;;;4975396;28;20113;-55
2022/04/07 01:38:58;;;;;;;9.52;1.40;;;15.50;85.60;;;;;;4957793;28;20026;-57
2022/04/07 01:41:26;;;;;;;5.30;1.27;;;15.40;85.40;;;;;;4975456;28;20166;-54
2022/04/07 01:43:56;;;;;;;5.18;1.00;;;15.40;85.40;;;;;;4975169;28;20492;-55
2022/04/07 01:46:22;;;;;;;5.15;1.13;;;15.40;85.40;;;;;;4975191;28;20030;-57
2022/04/07 01:48:49;;;;;;;6.15;1.65;;;15.40;85.40;;;;;;4974721;28;20118;-65
2022/04/07 01:51:15;;;;;;;3.85;0.90;;;15.50;85.30;;;;;;4975338;28;20120;-60
2022/04/07 01:53:43;;;;;;;4.95;1.25;;;15.40;85.20;;;;;;4974693;28;20018;-53
2022/04/07 01:56:09;;;;;;;4.32;1.15;;;15.40;85.20;;;;;;4974980;28;20070;-52
2022/04/07 01:58:36;;;;;;;8.43;1.70;;;15.40;85.20;;;;;;4974957;28;20460;-61
2022/04/07 02:01:03;;;;;;;6.88;1.95;;;15.40;85.10;;;;;;4974735;28;20468;-57
2022/04/07 02:03:28;;;;;;;6.50;1.50;;;15.40;85.20;;;;;;4974639;28;20377;-55
2022/04/07 02:05:54;;;;;;;8.65;1.27;;;15.40;85.30;;;;;;4973897;28;20037;-56
2022/04/07 02:08:19;;;;;;;5.18;1.30;;;15.40;85.20;;;;;;4974452;28;20019;-57
2022/04/07 02:10:45;;;;;;;5.43;1.27;;;15.40;85.20;;;;;;4974786;28;20106;-61
2022/04/07 02:13:10;;;;;;;5.07;1.35;;;15.40;85.20;;;;;;4974593;28;20030;-55
2022/04/07 02:15:36;;;;;;;5.38;1.30;;;15.40;85.00;;;;;;4974698;28;20408;-56
2022/04/07 02:18:02;;;;;;;5.18;1.30;;;15.30;85.40;;;;;;4974833;28;20023;-61
2022/04/07 02:20:27;;;;;;;6.85;1.42;;;15.30;84.90;;;;;;4974635;28;20496;-66
2022/04/07 02:22:53;;;;;;;5.45;1.55;;;15.30;85.00;;;;;;4974349;28;20026;-57
2022/04/07 02:25:22;;;;;;;5.00;1.25;;;15.30;84.90;;;;;;4974578;28;20019;-51
2022/04/07 02:27:48;;;;;;;5.90;1.42;;;15.30;84.90;;;;;;4974422;28;20113;-53
2022/04/07 02:30:14;;;;;;;7.97;1.85;;;15.30;84.80;;;;;;4974342;28;20117;-53
2022/04/07 02:32:41;;;;;;;8.48;1.60;;;15.30;84.80;;;;;;4974392;28;20023;-61
2022/04/07 02:35:11;;;;;;;5.40;1.30;;;15.30;84.70;;;;;;4974298;28;20494;-67
2022/04/07 02:37:37;;;;;;;8.13;1.40;;;15.30;84.60;;;;;;4974457;28;20042;-67
2022/04/07 02:40:03;;;;;;;10.45;2.08;;;15.30;84.60;;;;;;4974270;28;20018;-67
2022/04/07 02:42:28;;;;;;;4.65;1.10;;;15.30;84.50;;;;;;4974111;28;20035;-62
2022/04/07 02:44:54;;;;;;;7.70;1.50;;;15.30;84.60;;;;;;4974215;28;20033;-63
2022/04/07 02:47:19;;;;;;;7.53;1.40;;;15.30;84.50;;;;;;4974397;28;20015;-56
2022/04/07 02:49:46;;;;;;;7.00;1.60;;;15.30;84.30;;;;;;4974071;28;20039;-58
2022/04/07 02:52:11;;;;;;;4.93;1.20;;;15.30;84.30;;;;;;4974023;28;20027;-54
2022/04/07 02:54:37;;;;;;;6.10;1.33;;;15.30;84.30;;;;;;4974370;28;20090;-59
2022/04/07 02:57:03;;;;;;;7.15;1.50;;;15.30;84.40;;;;;;4973894;28;20467;-54
2022/04/07 02:59:30;;;;;;;4.78;1.60;;;15.30;84.20;;;;;;4976192;28;20045;-54
2022/04/07 03:01:56;;;;;;;7.85;1.98;;;15.30;84.30;;;;;;4973927;28;20034;-62
2022/04/07 03:04:24;;;;;;;6.50;1.60;;;15.30;84.10;;;;;;4973273;28;20030;-54
2022/04/07 03:06:50;;;;;;;6.20;1.83;;;15.30;84.10;;;;;;4973847;28;20110;-57
2022/04/07 03:09:17;;;;;;;10.90;1.80;;;15.20;84.00;;;;;;4974056;28;20069;-53
2022/04/07 03:11:43;;;;;;;6.10;1.27;;;15.20;84.00;;;;;;4974047;28;20030;-63
2022/04/07 03:14:08;;;;;;;6.88;1.63;;;15.20;84.20;;;;;;4974322;28;20027;-51
2022/04/07 03:16:34;;;;;;;8.55;1.80;;;15.20;84.10;;;;;;4975070;28;20042;-56
2022/04/07 03:18:59;;;;;;;4.70;1.60;;;15.20;84.10;;;;;;4977635;28;20046;-54
2022/04/07 03:21:25;;;;;;;5.70;1.40;;;15.20;84.10;;;;;;4977442;28;20081;-62
2022/04/07 03:23:50;;;;;;;5.05;1.13;;;15.20;84.00;;;;;;4977820;28;20477;-55
2022/04/07 03:26:16;;;;;;;8.15;1.77;;;15.20;83.90;;;;;;4977775;28;20109;-55
2022/04/07 03:28:41;;;;;;;6.55;1.60;;;15.20;83.80;;;;;;4977784;28;20030;-60
2022/04/07 03:31:07;;;;;;;5.38;1.38;;;15.20;83.90;;;;;;4977596;28;20019;-59
2022/04/07 03:33:32;;;;;;;8.02;1.77;;;15.20;84.00;;;;;;4977769;28;20045;-61
2022/04/07 03:35:58;;;;;;;3.88;1.23;;;15.20;83.90;;;;;;4977226;28;20384;-55
2022/04/07 03:38:24;;;;;;;6.13;1.20;;;15.20;83.90;;;;;;4977752;28;20037;-51
2022/04/07 03:40:49;;;;;;;4.25;1.15;;;15.20;83.80;;;;;;4977479;28;20019;-53
2022/04/07 03:43:15;;;;;;;5.22;1.30;;;15.20;83.70;;;;;;4977270;28;20357;-52
2022/04/07 03:45:40;;;;;;;6.75;1.50;;;15.20;83.80;;;;;;4977370;28;20026;-51
2022/04/07 03:48:07;;;;;;;5.47;1.38;;;15.20;83.80;;;;;;4977549;28;20511;-54
2022/04/07 03:50:33;;;;;;;5.18;1.27;;;15.20;83.70;;;;;;4977080;28;20142;-56
2022/04/07 03:52:59;;;;;;;6.57;1.45;;;15.20;83.60;;;;;;4977186;28;20031;-58
2022/04/07 03:55:24;;;;;;;6.30;1.13;;;15.20;83.60;;;;;;4977039;28;20158;-56
2022/04/07 03:57:50;;;;;;;4.35;1.25;;;15.20;83.50;;;;;;4977281;28;20030;-54
2022/04/07 04:00:16;;;;;;;5.88;1.30;;;15.20;83.50;;;;;;4977152;28;20023;-55
2022/04/07 04:02:42;;;;;;;7.68;1.38;;;15.20;83.50;;;;;;4977013;28;20169;-55
2022/04/07 04:05:08;;;;;;;6.80;1.30;;;15.20;83.50;;;;;;4976916;28;20030;-55
2022/04/07 04:07:34;;;;;;;4.28;1.23;;;15.20;83.50;;;;;;4976833;28;20480;-55
2022/04/07 04:10:01;;;;;;;3.75;0.75;;;15.20;83.40;;;;;;4977040;28;20034;-54
2022/04/07 04:12:26;;;;;;;3.20;1.02;;;15.20;83.50;;;;;;4977068;28;20034;-52
2022/04/07 04:14:52;;;;;;;4.22;1.30;;;15.20;83.50;;;;;;4976889;28;20026;-52
2022/04/07 04:17:17;;;;;;;4.10;0.90;;;15.20;83.50;;;;;;4976844;28;20126;-54
2022/04/07 04:19:43;;;;;;;2.97;0.77;;;15.20;83.50;;;;;;4985199;28;20038;-54
2022/04/07 04:22:09;;;;;;;6.10;0.90;;;15.20;83.70;;;;;;4994808;28;20057;-57
2022/04/07 04:24:35;;;;;;;3.20;1.02;;;15.20;83.80;;;;;;4995053;28;20111;-52
2022/04/07 04:27:00;;;;;;;3.05;0.70;;;15.20;83.80;;;;;;4995973;28;20109;-54
2022/04/07 04:29:26;;;;;;;3.50;0.90;;;15.20;83.70;;;;;;4995389;28;20041;-54
2022/04/07 04:31:51;;;;;;;2.42;0.70;;;15.20;83.70;;;;;;4995729;28;20025;-59
2022/04/07 04:34:17;;;;;;;3.45;0.93;;;15.20;83.70;;;;;;4995787;28;20411;-57
2022/04/07 04:36:43;;;;;;;2.28;0.75;;;15.20;83.80;;;;;;4994383;28;20395;-58
2022/04/07 04:39:08;;;;;;;3.70;0.57;;;15.20;83.80;;;;;;4995017;28;20061;-54
2022/04/07 04:41:34;;;;;;;4.28;1.00;;;15.20;83.80;;;;;;4995734;28;20038;-59
2022/04/07 04:44:00;;;;;;;2.42;0.95;;;15.20;84.00;;;;;;4995778;28;20126;-55
2022/04/07 04:46:27;;;;;;;3.40;1.00;;;15.20;84.10;;;;;;4995782;28;20030;-56
2022/04/07 04:48:52;;;;;;;2.53;0.50;;;15.10;83.80;;;;;;4995399;28;20480;-54
2022/04/07 04:51:18;;;;;;;2.92;0.73;;;15.20;84.00;;;;;;4995789;28;20029;-58
2022/04/07 04:53:43;;;;;;;3.20;0.88;;;15.20;84.10;;;;;;4995679;28;20433;-54
2022/04/07 04:56:09;;;;;;;2.85;0.90;;;15.10;83.90;;;;;;4995481;28;20027;-55
2022/04/07 04:58:34;;;;;;;4.18;1.02;;;15.10;83.90;;;;;;4995358;28;20464;-57
2022/04/07 05:01:00;;;;;;;4.25;1.00;;;15.20;83.90;;;;;;4988647;28;20491;-56
2022/04/07 05:03:25;;;;;;;4.35;0.95;;;15.50;82.50;;;;;;4975677;28;20031;-56
2022/04/07 05:05:51;;;;;;;2.28;0.90;;;15.60;81.90;;;;;;4976155;28;20094;-57
2022/04/07 05:08:19;;;;;;;3.20;0.70;;;15.70;81.80;;;;;;4975728;28;20107;-52
2022/04/07 05:10:44;;;;;;;3.25;0.90;;;15.70;81.60;;;;;;4976239;28;20015;-56
2022/04/07 05:13:10;;;;;;;3.47;1.15;;;15.80;81.30;;;;;;4975718;28;20035;-58
2022/04/07 05:15:37;;;;;;;2.50;0.73;;;15.70;81.40;;;;;;4975627;28;20547;-55
2022/04/07 05:18:03;;;;;;;2.63;0.65;;;15.80;81.40;;;;;;4975314;28;20101;-55
2022/04/07 05:20:29;;;;;;;3.83;1.20;;;15.70;81.30;;;;;;4976023;28;20425;-59
2022/04/07 05:22:54;;;;;;;4.82;1.10;;;15.80;81.10;;;;;;4975407;28;20034;-56
2022/04/07 05:25:20;;;;;;;5.57;1.17;;;15.80;81.20;;;;;;4975628;28;20033;-58
2022/04/07 05:27:45;;;;;;;4.00;0.80;;;15.80;81.30;;;;;;4975423;28;20027;-55
2022/04/07 05:30:13;;;;;;;3.63;0.90;;;15.80;81.10;;;;;;4958092;28;20058;-55
2022/04/07 05:32:38;;;;;;;2.08;0.90;;;15.80;81.10;;;;;;4975156;28;20664;-55
2022/04/07 05:35:05;;;;;;;5.13;1.00;;;15.90;81.00;;;;;;4975492;28;20113;-54
2022/04/07 05:37:30;;;;;;;2.88;0.73;;;15.80;81.10;;;;;;4975101;28;20027;-55
2022/04/07 05:39:56;;;;;;;5.15;1.40;;;15.80;81.30;;;;;;4975323;28;20345;-55
2022/04/07 05:42:22;;;;;;;5.55;1.10;;;15.80;81.40;;;;;;4975254;28;20498;-55
2022/04/07 05:44:47;;;;;;;4.93;1.13;;;15.80;81.60;;;;;;4975269;28;20022;-56
2022/04/07 05:47:13;;;;;;;5.05;1.30;;;15.80;81.80;;;;;;4974520;28;20027;-57
2022/04/07 05:49:39;;;;;;;4.15;1.20;;;15.80;81.80;;;;;;4993216;28;20077;-56
2022/04/07 05:52:05;;;;;;;4.40;1.20;;;15.80;81.70;;;;;;4993952;28;20070;-55
2022/04/07 05:54:31;;;;;;;5.20;1.40;;;15.70;82.00;;;;;;4992972;28;20025;-59
2022/04/07 05:56:57;;;;;;;3.67;1.00;;;15.80;81.70;;;;;;4994654;28;20039;-61
2022/04/07 05:59:23;;;;;;;4.70;1.00;;;15.70;82.10;;;;;;4994377;28;20026;-57
2022/04/07 06:01:49;;;;;;;6.22;0.68;;;15.60;82.40;;;;;;4981620;28;20089;-54
2022/04/07 06:04:15;;;;;;;3.88;1.00;;;15.50;83.30;;;;;;4982881;28;20440;-59
2022/04/07 06:06:40;;;;;;;5.40;1.05;;;15.50;83.60;;;;;;4994331;28;20028;-59
2022/04/07 06:09:06;;;;;;;17.00;2.00;;;15.40;84.00;;;;;;4994282;28;20535;-53
2022/04/07 06:11:32;;;;;;;11.05;1.40;;;15.40;85.50;;;;;;4993905;28;20018;-56
2022/04/07 06:13:57;;;;;;;18.85;1.80;;;15.40;85.70;;;;;;4993968;28;20501;-55
2022/04/07 06:16:23;;;;;;;10.63;1.60;;;15.40;86.10;;;;;;4993668;28;20042;-56
2022/04/07 06:18:49;;;;;;;14.63;1.48;;;15.40;86.30;;;;;;4993905;28;20034;-55
2022/04/07 06:21:14;;;;;;;24.02;2.35;;;15.30;86.60;;;;;;4993931;28;20117;-56
2022/04/07 06:23:40;;;;;;;32.42;2.83;;;15.30;87.00;;;;;;4989934;28;20034;-56
2022/04/07 06:26:06;;;;;;;24.15;2.45;;;15.30;87.90;;;;;;4993191;28;20065;-54
2022/04/07 06:28:32;;;;;;;15.02;1.95;;;15.50;87.80;;;;;;4988291;28;20062;-56
2022/04/07 06:30:58;;;;;;;13.98;1.85;;;15.50;87.70;;;;;;4987724;28;20080;-58
2022/04/07 06:33:24;;;;;;;19.27;2.10;;;15.50;87.90;;;;;;4993664;28;20532;-55
2022/04/07 06:35:50;;;;;;;5.57;1.20;;;15.40;88.10;;;;;;4991383;28;20035;-54
2022/04/07 06:38:16;;;;;;;13.07;1.60;;;15.40;87.70;;;;;;4990408;28;20034;-56
2022/04/07 06:40:42;;;;;;;17.38;1.45;;;15.30;88.90;;;;;;4993474;28;20034;-62
2022/04/07 06:43:07;;;;;;;29.65;3.30;;;15.30;90.10;;;;;;4993237;28;20425;-56
2022/04/07 06:45:33;;;;;;;26.05;2.75;;;15.40;90.20;;;;;;4987244;28;20042;-58
2022/04/07 06:47:58;;;;;;;17.58;1.42;;;15.40;90.20;;;;;;4989797;28;20038;-59
2022/04/07 06:50:25;;;;;;;10.85;1.15;;;15.40;90.30;;;;;;4988588;28;20030;-59
2022/04/07 06:52:52;;;;;;;7.43;0.82;;;15.50;89.40;;;;;;4990742;28;20037;-58
2022/04/07 06:55:17;;;;;;;4.07;0.90;;;15.40;89.40;;;;;;4992247;28;20030;-59
2022/04/07 06:58:04;;;;;;;4.38;0.75;;;15.30;89.50;;;;;;5000779;28;20510;-64
2022/04/07 07:00:34;;;;;;;8.30;0.80;;;15.20;90.00;;;;;;4993077;28;20448;-59
2022/04/07 07:03:03;;;;;;;3.28;0.70;;;15.20;90.40;;;;;;4992001;28;20648;-59
2022/04/07 07:05:34;;;;;;;7.53;0.93;;;15.10;90.50;;;;;;4978853;28;20022;-58
2022/04/07 07:08:12;;;;;;;10.07;1.45;;;15.10;91.00;;;;;;4992225;28;20109;-69
2022/04/07 07:10:38;;;;;;;3.35;1.10;;;15.30;91.10;;;;;;4989361;28;20042;-59
2022/04/07 07:13:04;;;;;;;8.75;1.00;;;15.20;90.70;;;;;;4987306;28;20026;-59
2022/04/07 07:15:29;;;;;;;4.07;0.82;;;15.10;90.70;;;;;;4992484;28;20034;-61
2022/04/07 07:17:55;;;;;;;6.43;0.65;;;15.00;90.20;;;;;;4992357;28;20085;-59
2022/04/07 07:20:20;;;;;;;6.68;0.80;;;15.00;90.60;;;;;;4995722;28;20042;-61
2022/04/07 07:22:46;;;;;;;5.05;0.55;;;15.10;91.70;;;;;;4987914;28;20081;-60
2022/04/07 07:25:12;;;;;;;3.25;0.45;;;15.00;92.40;;;;;;4990644;28;20038;-58
2022/04/07 07:27:43;;;;;;;3.72;0.60;;;15.00;92.40;;;;;;4989710;28;20022;-55
2022/04/07 07:30:11;;;;;;;1.65;0.50;;;15.00;92.50;;;;;;4976254;28;20109;-59
2022/04/07 07:32:40;;;;;;;4.75;0.50;;;15.00;92.40;;;;;;4990382;28;20571;-62
2022/04/07 07:35:07;;;;;;;3.10;0.88;;;15.00;91.70;;;;;;4990891;28;20026;-72
2022/04/07 07:37:33;;;;;;;3.05;0.75;;;14.90;92.90;;;;;;4987810;28;20030;-63
2022/04/07 07:40:07;;;;;;;2.03;0.28;;;14.90;92.90;;;;;;4990699;28;20021;-60
2022/04/07 07:42:33;;;;;;;2.55;0.30;;;14.90;92.50;;;;;;4989363;28;20113;-62
2022/04/07 07:44:59;;;;;;;1.73;0.20;;;14.80;92.50;;;;;;4991362;28;20022;-66
2022/04/07 07:47:24;;;;;;;2.05;0.22;;;14.80;92.40;;;;;;4987543;28;20027;-56
2022/04/07 07:49:51;;;;;;;1.35;0.20;;;14.80;92.00;;;;;;4991419;28;20031;-60
2022/04/07 07:52:17;;;;;;;3.15;0.28;;;14.80;92.40;;;;;;4991491;28;20121;-74
2022/04/07 07:54:42;;;;;;;5.78;0.68;;;14.80;92.50;;;;;;4993449;28;20445;-60
2022/04/07 07:57:08;;;;;;;8.25;1.38;;;14.80;92.40;;;;;;4994736;28;20424;-62
2022/04/07 07:59:34;;;;;;;5.72;0.70;;;14.80;92.00;;;;;;4992931;28;20045;-57
2022/04/07 08:02:00;;;;;;;8.65;0.35;;;14.90;91.90;;;;;;4990820;28;20023;-66
2022/04/07 08:04:25;;;;;;;5.78;0.65;;;14.80;91.80;;;;;;4990730;28;20397;-60
2022/04/07 08:06:51;;;;;;;10.32;1.05;;;14.80;92.00;;;;;;4994936;28;20148;-60
2022/04/07 08:09:16;;;;;;;4.80;0.60;;;14.80;92.10;;;;;;4986805;28;20030;-59
2022/04/07 08:11:42;;;;;;;12.25;1.10;;;14.90;92.00;;;;;;4995106;28;20026;-57
2022/04/07 08:14:09;;;;;;;7.10;1.00;;;14.90;92.00;;;;;;4985335;28;20035;-59
2022/04/07 08:16:37;;;;;;;4.80;0.50;;;15.00;91.90;;;;;;4996032;28;20395;-55
2022/04/07 08:19:04;;;;;;;7.68;0.70;;;15.00;91.70;;;;;;4986707;28;20116;-59
2022/04/07 08:21:30;;;;;;;5.28;0.52;;;15.10;91.70;;;;;;4989195;28;20125;-61
2022/04/07 08:23:56;;;;;;;2.92;0.30;;;15.10;91.60;;;;;;5001967;28;20104;-55
2022/04/07 08:26:21;;;;;;;3.78;0.45;;;15.10;91.50;;;;;;5004565;28;20041;-54
2022/04/07 08:28:47;;;;;;;2.13;0.30;;;15.10;91.40;;;;;;4994516;28;20030;-57
2022/04/07 08:31:13;;;;;;;4.65;0.80;;;15.20;91.40;;;;;;4994174;28;20026;-55
2022/04/07 08:33:38;;;;;;;2.45;0.43;;;15.10;91.20;;;;;;4994163;28;20395;-60
2022/04/07 08:36:04;;;;;;;3.35;0.30;;;15.10;91.50;;;;;;4994190;28;20023;-67
2022/04/07 08:38:30;;;;;;;2.95;0.43;;;15.10;91.50;;;;;;4994472;28;20085;-60
2022/04/07 08:40:56;;;;;;;6.85;0.52;;;15.20;91.00;;;;;;4977945;28;20029;-65
2022/04/07 08:43:22;;;;;;;2.60;0.40;;;15.20;90.80;;;;;;4989473;28;20136;-66
2022/04/07 08:45:49;;;;;;;4.72;0.60;;;15.20;90.50;;;;;;4994282;28;20027;-67
2022/04/07 08:48:15;;;;;;;4.10;1.02;;;15.20;90.00;;;;;;4993738;28;20104;-62
2022/04/07 08:50:43;;;;;;;3.67;0.63;;;15.20;88.90;;;;;;4995210;28;20428;-56
2022/04/07 08:53:10;;;;;;;3.28;0.80;;;15.20;87.90;;;;;;4991104;28;20053;-55
2022/04/07 08:55:37;;;;;;;5.78;0.70;;;15.30;87.30;;;;;;4995711;28;20042;-60
2022/04/07 08:58:03;;;;;;;9.68;1.13;;;15.20;85.50;;;;;;4987176;28;20030;-59
2022/04/07 09:00:29;;;;;;;4.28;1.02;;;15.30;85.40;;;;;;4990208;28;20527;-59
2022/04/07 09:02:55;;;;;;;4.47;0.88;;;15.20;85.80;;;;;;4992581;28;20169;-61
2022/04/07 09:05:24;;;;;;;3.10;0.52;;;15.20;85.90;;;;;;4991124;28;20643;-62
2022/04/07 09:07:55;;;;;;;4.13;0.60;;;15.20;88.80;;;;;;4991714;28;20048;-60
2022/04/07 09:10:22;;;;;;;4.50;0.55;;;15.30;88.00;;;;;;4993341;28;20030;-59
2022/04/07 09:12:50;;;;;;;7.85;1.10;;;15.30;89.10;;;;;;4987055;28;20078;-62
2022/04/07 09:15:16;;;;;;;4.55;0.88;;;15.30;89.00;;;;;;4993987;28;20037;-61
2022/04/07 09:17:54;;;;;;;5.13;0.90;;;15.40;89.50;;;;;;4994768;28;20042;-67
2022/04/07 09:20:21;;;;;;;8.00;0.85;;;15.40;90.20;;;;;;4994023;28;20480;-61
2022/04/07 09:22:57;;;;;;;6.10;0.90;;;15.50;90.50;;;;;;4993375;28;20372;-65
2022/04/07 09:25:23;;;;;;;5.05;0.73;;;15.50;90.50;;;;;;4991337;28;20037;-64
2022/04/07 09:27:49;;;;;;;3.55;0.90;;;15.60;89.70;;;;;;4985098;28;20026;-62
2022/04/07 09:30:15;;;;;;;6.75;0.88;;;15.70;88.40;;;;;;4994412;28;20034;-59
2022/04/07 09:32:45;;;;;;;7.93;0.95;;;15.70;87.60;;;;;;5006706;28;20459;-59
2022/04/07 09:35:11;;;;;;;7.60;0.70;;;15.80;86.70;;;;;;4994750;28;20099;-62
2022/04/07 09:37:40;;;;;;;4.68;0.43;;;16.00;85.30;;;;;;4993368;28;20645;-60
2022/04/07 09:40:14;;;;;;;9.82;1.48;;;16.00;82.30;;;;;;4983558;28;20113;-59
2022/04/07 09:42:43;;;;;;;5.18;0.73;;;16.00;83.10;;;;;;4982594;28;20019;-61
2022/04/07 09:45:14;;;;;;;8.23;1.30;;;16.00;83.80;;;;;;4985856;28;20037;-59
2022/04/07 09:47:44;;;;;;;6.97;1.30;;;16.00;83.10;;;;;;4993152;28;20160;-60
2022/04/07 09:50:29;;;;;;;10.23;1.13;;;16.00;83.40;;;;;;4986732;28;20027;-63
2022/04/07 09:53:00;;;;;;;6.55;1.00;;;16.10;83.00;;;;;;4994115;28;20030;-59
2022/04/07 09:55:36;;;;;;;6.22;0.80;;;16.10;82.60;;;;;;4992535;28;20117;-59
2022/04/07 09:58:03;;;;;;;6.97;1.23;;;16.20;82.10;;;;;;4987771;28;20027;-59
2022/04/07 10:00:29;;;;;;;7.25;1.33;;;16.20;82.30;;;;;;4980946;28;20045;-58
2022/04/07 10:02:56;;;;;;;12.48;1.77;;;16.20;82.10;;;;;;4983087;28;20019;-62
2022/04/07 10:05:23;;;;;;;7.07;1.23;;;16.20;81.40;;;;;;4990310;28;20026;-61
2022/04/07 10:07:49;;;;;;;10.65;1.38;;;16.20;81.80;;;;;;4992286;28;20134;-62
2022/04/07 10:10:17;;;;;;;16.08;1.95;;;16.20;81.70;;;;;;4989075;28;20464;-61
2022/04/07 10:12:43;;;;;;;10.45;1.40;;;16.20;81.30;;;;;;4986748;28;20132;-60
2022/04/07 10:15:09;;;;;;;10.55;1.42;;;16.20;81.20;;;;;;4983256;28;20173;-61
2022/04/07 10:17:38;;;;;;;6.25;1.38;;;16.30;81.00;;;;;;4991157;28;20038;-59
2022/04/07 10:20:08;;;;;;;6.30;0.80;;;16.30;80.50;;;;;;4985859;28;20092;-58
2022/04/07 10:23:07;;;;;;;9.18;1.42;;;16.30;80.00;;;;;;4982841;28;20026;-59
2022/04/07 10:25:38;;;;;;;6.55;1.40;;;16.30;79.60;;;;;;4987547;28;20034;-70
2022/04/07 10:28:04;;;;;;;8.20;1.00;;;16.30;78.70;;;;;;4983868;28;20023;-70
2022/04/07 10:30:32;;;;;;;10.65;1.20;;;16.30;78.70;;;;;;4984844;28;20031;-58
2022/04/07 10:32:58;;;;;;;9.98;1.50;;;16.30;78.20;;;;;;4982615;28;20033;-64
2022/04/07 10:35:30;;;;;;;10.10;1.52;;;16.30;78.90;;;;;;4983709;28;20527;-68
2022/04/07 10:37:58;;;;;;;5.60;1.20;;;16.40;78.30;;;;;;4991054;28;20045;-60
2022/04/07 10:40:34;;;;;;;7.65;1.13;;;16.40;77.80;;;;;;4982070;28;20147;-64
2022/04/07 10:43:10;;;;;;;9.32;1.45;;;16.40;78.40;;;;;;4987761;28;20488;-65
2022/04/07 10:45:42;;;;;;;5.72;0.98;;;16.40;78.40;;;;;;4984603;28;20026;-61
2022/04/07 10:48:20;;;;;;;4.45;1.02;;;16.30;79.80;;;;;;4984524;28;20042;-68
2022/04/07 10:50:50;;;;;;;8.80;1.23;;;16.40;80.70;;;;;;4986317;28;20049;-63
2022/04/07 10:53:24;;;;;;;6.88;1.40;;;16.40;81.80;;;;;;4987076;28;20038;-69
2022/04/07 10:55:55;;;;;;;3.85;1.27;;;16.50;83.60;;;;;;4983841;28;20030;-70
2022/04/07 10:58:36;;;;;;;7.05;1.10;;;16.50;84.00;;;;;;4985519;28;20026;-59
2022/04/07 11:01:01;;;;;;;7.10;1.55;;;16.50;85.00;;;;;;4986803;28;20078;-62
2022/04/07 11:03:27;;;;;;;8.10;1.58;;;16.50;87.80;;;;;;4992894;28;20035;-67
2022/04/07 11:05:57;;;;;;;10.52;2.05;;;16.60;86.60;;;;;;4991154;28;20088;-70
2022/04/07 11:08:23;;;;;;;12.20;2.33;;;16.60;89.70;;;;;;4991958;28;20031;-70
2022/04/07 11:10:50;;;;;;;9.00;2.15;;;16.60;90.50;;;;;;4990513;28;20037;-70
2022/04/07 11:13:16;;;;;;;8.00;1.77;;;16.70;91.40;;;;;;4992944;28;20085;-65
2022/04/07 11:15:55;;;;;;;9.05;2.20;;;16.70;88.40;;;;;;4991916;28;20121;-69
2022/04/07 11:18:45;;;;;;;13.38;2.40;;;16.60;84.20;;;;;;4984834;28;20034;-57
2022/04/07 11:21:12;;;;;;;10.00;1.65;;;16.70;88.90;;;;;;4985942;28;20029;-70
2022/04/07 11:24:01;;;;;;;8.55;1.73;;;16.70;90.40;;;;;;4983725;28;20126;-70
2022/04/07 11:26:27;;;;;;;12.10;2.50;;;16.70;89.60;;;;;;4990568;28;20061;-60
2022/04/07 11:29:03;;;;;;;12.23;2.17;;;16.70;90.70;;;;;;4984619;28;20036;-72
2022/04/07 11:31:44;;;;;;;10.57;2.17;;;16.80;90.20;;;;;;4989655;28;20026;-59
2022/04/07 11:34:35;;;;;;;7.87;1.90;;;16.80;86.80;;;;;;4979295;28;20026;-59
2022/04/07 11:37:06;;;;;;;14.68;2.13;;;16.80;86.10;;;;;;4988165;28;20566;-55
2022/04/07 11:39:33;;;;;;;22.60;3.13;;;16.80;88.50;;;;;;4997275;28;20463;-65
2022/04/07 11:42:00;;;;;;;14.90;2.28;;;16.80;87.80;;;;;;4975668;28;20042;-58
2022/04/07 11:44:26;;;;;;;18.58;2.40;;;16.90;86.80;;;;;;4990296;28;20041;-57
2022/04/07 11:46:52;;;;;;;14.82;2.67;;;16.90;88.00;;;;;;4994899;28;20463;-60
2022/04/07 11:49:18;;;;;;;9.07;2.10;;;16.90;87.70;;;;;;4992287;28;20559;-64
2022/04/07 11:51:45;;;;;;;9.40;1.83;;;17.00;86.80;;;;;;4983327;28;20026;-63
2022/04/07 11:54:16;;;;;;;11.57;2.25;;;16.90;86.20;;;;;;4992195;28;20030;-62
2022/04/07 11:56:42;;;;;;;13.52;2.15;;;16.90;85.60;;;;;;4993712;28;20050;-65
2022/04/07 11:59:12;;;;;;;11.10;2.08;;;17.00;83.30;;;;;;4985476;28;20034;-66
2022/04/07 12:01:46;;;;;;;7.38;1.58;;;17.00;81.40;;;;;;4983349;28;20035;-61
2022/04/07 12:04:13;;;;;;;11.48;2.00;;;17.00;83.50;;;;;;4988903;28;20022;-54
2022/04/07 12:06:40;;;;;;;12.88;2.55;;;17.00;83.20;;;;;;4992236;28;20037;-60
2022/04/07 12:09:07;;;;;;;13.40;2.38;;;17.00;81.80;;;;;;4992898;28;20018;-65
2022/04/07 12:11:35;;;;;;;8.45;2.35;;;17.00;82.50;;;;;;4990847;28;20042;-57
2022/04/07 12:14:08;;;;;;;10.02;2.60;;;17.10;80.70;;;;;;4993502;28;20018;-57
2022/04/07 12:16:33;;;;;;;;;;;17.10;80.40;;;;;;4992648;28;20038;-59
2022/04/07 12:19:07;;;;;;;14.70;2.40;;;17.10;81.10;;;;;;4988664;28;20009;-53
2022/04/07 12:21:52;;;;;;;14.48;2.33;;;17.10;80.50;;;;;;4989682;28;20046;-54
2022/04/07 12:24:17;;;;;;;6.65;1.77;;;17.10;80.10;;;;;;4985921;28;20026;-60
2022/04/07 12:26:49;;;;;;;8.50;1.92;;;17.10;80.60;;;;;;4984723;28;20085;-63
2022/04/07 12:29:31;;;;;;;9.25;2.42;;;17.10;80.00;;;;;;4993551;28;20035;-60
2022/04/07 12:32:04;;;;;;;;;;;17.10;79.00;;;;;;4992169;28;20037;-63
2022/04/07 12:34:30;;;;;;;11.77;2.78;;;17.10;80.60;;;;;;4989290;28;19918;-59
2022/04/07 12:36:56;;;;;;;11.82;2.50;;;17.10;77.90;;;;;;4993080;28;20038;-61
2022/04/07 12:39:28;;;;;;;13.57;2.80;;;17.00;76.50;;;;;;4993675;28;20018;-58
2022/04/07 12:42:04;;;;;;;15.13;2.70;;;17.10;78.20;;;;;;4984865;28;20118;-56
2022/04/07 12:44:30;;;;;;;12.18;2.22;;;17.20;77.70;;;;;;4985177;28;20033;-55
2022/04/07 12:46:57;;;;;;;11.75;1.90;;;17.20;77.40;;;;;;4984998;28;20022;-57